Time;durP1;ratioP1;P1;durP2;ratioP2;P2;SDS_P1;SDS_P2;PMS_P1;PMS_P2;Temp;Humidity;BMP_temperature;BMP_pressure;BME280_temperature;BME280_humidity;BME280_pressure;Samples;Min_cycle;Max_cycle;Signal;HPM_P1;HPM_P2
2021/09/18 00:00:31;;;;;;;2.17;1.47;;;15.90;99.90;;;;;;5022855;28;20214;-75
2021/09/18 00:02:57;;;;;;;3.43;1.83;;;15.90;99.90;;;;;;5026637;28;20175;-75
2021/09/18 00:05:22;;;;;;;4.20;4.00;;;15.90;99.90;;;;;;5030911;28;20174;-75
2021/09/18 00:07:48;;;;;;;1.33;1.23;;;15.80;99.90;;;;;;5028501;28;20557;-75
2021/09/18 00:10:13;;;;;;;2.03;1.60;;;15.80;99.90;;;;;;5021033;28;20218;-75
2021/09/18 00:12:39;;;;;;;2.10;1.87;;;15.80;99.90;;;;;;5021344;28;20890;-75
2021/09/18 00:15:06;;;;;;;2.23;2.00;;;15.80;99.90;;;;;;5021709;28;20172;-75
2021/09/18 00:17:31;;;;;;;0.80;0.80;;;15.70;99.90;;;;;;5022321;28;20202;-75
2021/09/18 00:19:58;;;;;;;1.20;1.10;;;15.70;99.90;;;;;;5019744;28;20461;-75
2021/09/18 00:22:24;;;;;;;5.00;2.37;;;15.70;99.90;;;;;;5017463;28;20222;-75
2021/09/18 00:24:49;;;;;;;2.20;1.63;;;15.70;99.90;;;;;;5019891;28;20426;-74
2021/09/18 00:27:15;;;;;;;7.03;2.77;;;15.70;99.90;;;;;;5019010;28;21011;-75
2021/09/18 00:29:41;;;;;;;1.80;1.70;;;15.70;99.90;;;;;;5019077;28;20945;-75
2021/09/18 00:32:06;;;;;;;3.13;2.40;;;15.70;99.90;;;;;;5021815;28;20258;-75
2021/09/18 00:34:32;;;;;;;7.03;1.77;;;15.70;99.90;;;;;;5022612;28;20179;-75
2021/09/18 00:36:57;;;;;;;1.40;1.30;;;15.60;99.90;;;;;;5018262;28;21723;-75
2021/09/18 00:39:23;;;;;;;1.80;1.70;;;15.50;99.90;;;;;;5018023;28;20239;-75
2021/09/18 00:41:48;;;;;;;3.00;1.93;;;15.50;99.90;;;;;;5019668;28;20203;-75
2021/09/18 00:44:19;;;;;;;2.03;1.53;;;15.50;99.90;;;;;;5019461;28;20186;-74
2021/09/18 00:46:52;;;;;;;2.00;1.87;;;15.50;99.90;;;;;;5016896;28;20466;-75
2021/09/18 00:49:19;;;;;;;2.27;2.00;;;15.40;99.90;;;;;;5021695;28;20490;-75
2021/09/18 00:51:45;;;;;;;1.87;1.43;;;15.40;99.90;;;;;;5019102;28;20461;-75
2021/09/18 00:54:12;;;;;;;4.93;1.93;;;15.40;99.90;;;;;;5021145;28;20435;-75
2021/09/18 00:56:37;;;;;;;3.17;2.50;;;15.40;99.90;;;;;;5021810;28;20429;-75
2021/09/18 00:59:03;;;;;;;1.90;1.80;;;15.40;99.90;;;;;;5018343;28;20447;-75
2021/09/18 01:01:28;;;;;;;2.37;1.97;;;15.40;99.90;;;;;;5021950;28;20673;-75
2021/09/18 01:03:54;;;;;;;4.03;3.43;;;15.40;99.90;;;;;;5022505;28;20225;-75
2021/09/18 01:06:20;;;;;;;2.47;2.30;;;15.30;99.90;;;;;;5020904;28;20175;-75
2021/09/18 01:08:52;;;;;;;4.90;3.00;;;15.30;99.90;;;;;;5018257;28;20263;-75
2021/09/18 01:11:17;;;;;;;0.90;0.80;;;15.30;99.90;;;;;;5019958;28;20267;-75
2021/09/18 01:13:43;;;;;;;3.03;1.50;;;15.30;99.90;;;;;;5022854;28;21027;-74
2021/09/18 01:16:08;;;;;;;2.37;2.17;;;15.20;99.90;;;;;;5021437;28;20192;-74
2021/09/18 01:18:34;;;;;;;1.87;1.77;;;15.20;99.90;;;;;;5019134;28;21700;-75
2021/09/18 01:21:00;;;;;;;9.93;2.00;;;15.20;99.90;;;;;;5020575;28;20207;-75
2021/09/18 01:23:26;;;;;;;2.10;1.27;;;15.20;99.90;;;;;;5021607;28;20175;-74
2021/09/18 01:25:52;;;;;;;3.13;1.43;;;15.20;99.90;;;;;;5022287;28;20211;-75
2021/09/18 01:28:18;;;;;;;3.13;1.97;;;15.10;99.90;;;;;;5021106;28;20179;-75
2021/09/18 01:30:44;;;;;;;2.40;1.30;;;15.10;99.90;;;;;;5017839;28;20527;-75
2021/09/18 01:33:11;;;;;;;1.90;1.80;;;15.10;99.90;;;;;;5022099;28;20448;-75
2021/09/18 01:35:37;;;;;;;3.50;1.90;;;15.10;99.90;;;;;;5017864;28;20463;-75
2021/09/18 01:38:04;;;;;;;1.77;1.60;;;15.10;99.90;;;;;;5020735;28;20465;-74
2021/09/18 01:40:33;;;;;;;2.10;1.37;;;15.20;99.90;;;;;;5020042;28;20532;-75
2021/09/18 01:42:59;;;;;;;3.77;3.07;;;15.20;99.90;;;;;;5018701;28;20430;-75
2021/09/18 01:45:25;;;;;;;1.70;1.60;;;15.20;99.90;;;;;;5022823;28;20434;-75
2021/09/18 01:47:57;;;;;;;3.37;2.90;;;15.20;99.90;;;;;;5024277;28;20480;-75
2021/09/18 01:50:23;;;;;;;4.83;2.50;;;15.20;99.90;;;;;;5024677;28;20848;-74
2021/09/18 01:52:48;;;;;;;2.33;1.90;;;15.20;99.90;;;;;;5029857;28;20434;-74
2021/09/18 01:55:15;;;;;;;1.63;1.53;;;15.20;99.90;;;;;;5025950;28;20492;-75
2021/09/18 01:57:44;;;;;;;3.40;3.20;;;15.20;99.90;;;;;;5022286;28;20196;-75
2021/09/18 02:00:12;;;;;;;1.50;1.40;;;15.00;99.90;;;;;;5023687;28;20544;-75
2021/09/18 02:02:37;;;;;;;1.83;1.70;;;15.10;99.90;;;;;;5020562;28;20510;-75
2021/09/18 02:05:03;;;;;;;2.80;2.60;;;15.10;99.90;;;;;;5020188;28;20512;-75
2021/09/18 02:07:29;;;;;;;1.87;1.70;;;15.10;99.90;;;;;;5017465;28;20207;-75
2021/09/18 02:09:54;;;;;;;3.93;2.07;;;15.10;99.90;;;;;;5013323;28;20426;-75
2021/09/18 02:12:20;;;;;;;2.70;2.03;;;15.20;99.90;;;;;;5014536;28;20183;-75
2021/09/18 02:14:45;;;;;;;6.30;2.90;;;15.20;99.90;;;;;;5025071;28;20187;-75
2021/09/18 02:17:11;;;;;;;2.00;1.47;;;15.20;99.90;;;;;;5034093;28;20234;-75
2021/09/18 02:19:36;;;;;;;2.10;1.50;;;15.20;99.90;;;;;;5033940;28;20203;-75
2021/09/18 02:22:02;;;;;;;2.70;1.33;;;15.20;99.90;;;;;;5023339;28;20207;-75
2021/09/18 02:24:27;;;;;;;3.80;2.20;;;15.20;99.90;;;;;;5022484;28;20177;-75
2021/09/18 02:26:53;;;;;;;1.40;1.30;;;15.20;99.90;;;;;;5019253;28;20179;-75
2021/09/18 02:29:18;;;;;;;6.83;2.93;;;15.30;99.90;;;;;;5033828;28;20637;-75
2021/09/18 02:31:44;;;;;;;3.03;2.63;;;15.30;99.90;;;;;;5034317;28;20287;-75
2021/09/18 02:34:10;;;;;;;3.17;2.97;;;15.30;99.90;;;;;;5032809;28;20199;-75
2021/09/18 02:36:35;;;;;;;1.40;1.30;;;15.20;99.90;;;;;;5032233;28;20549;-75
2021/09/18 02:39:01;;;;;;;1.03;0.93;;;15.20;99.90;;;;;;5033986;28;20198;-75
2021/09/18 02:41:26;;;;;;;1.90;1.80;;;15.20;99.90;;;;;;5034149;28;20209;-75
2021/09/18 02:43:52;;;;;;;1.70;1.60;;;15.20;99.90;;;;;;5034198;28;20633;-75
2021/09/18 02:46:17;;;;;;;1.10;1.00;;;15.20;99.90;;;;;;5026145;28;20172;-75
2021/09/18 02:48:43;;;;;;;2.03;1.90;;;15.20;99.90;;;;;;5017353;28;20184;-75
2021/09/18 02:51:08;;;;;;;3.10;2.23;;;15.20;99.90;;;;;;5014159;28;20223;-75
2021/09/18 02:53:34;;;;;;;1.67;1.57;;;15.20;99.90;;;;;;5014058;28;20531;-75
2021/09/18 02:56:02;;;;;;;0.97;0.87;;;15.20;99.90;;;;;;5018806;28;20226;-75
2021/09/18 02:58:27;;;;;;;2.13;1.37;;;15.20;99.90;;;;;;5030169;28;20271;-75
2021/09/18 03:00:53;;;;;;;2.50;2.30;;;15.20;99.90;;;;;;5033214;28;20548;-75
2021/09/18 03:03:18;;;;;;;1.93;1.83;;;15.10;99.90;;;;;;5033019;28;20178;-75
2021/09/18 03:05:44;;;;;;;1.47;1.37;;;15.10;99.90;;;;;;5031405;28;20230;-75
2021/09/18 03:08:09;;;;;;;4.40;2.23;;;15.10;99.90;;;;;;5031728;28;20266;-75
2021/09/18 03:10:35;;;;;;;2.47;2.00;;;15.10;99.90;;;;;;5032995;28;20234;-75
2021/09/18 03:13:00;;;;;;;4.53;2.63;;;15.10;99.90;;;;;;5032250;28;20617;-75
2021/09/18 03:15:26;;;;;;;1.73;1.60;;;15.00;99.90;;;;;;5029857;28;20550;-75
2021/09/18 03:17:52;;;;;;;2.13;1.40;;;15.00;99.90;;;;;;5026407;28;20535;-75
2021/09/18 03:20:17;;;;;;;4.70;4.30;;;15.00;99.90;;;;;;5025629;28;20211;-75
2021/09/18 03:22:43;;;;;;;2.37;2.23;;;15.00;99.90;;;;;;5025250;28;20179;-75
2021/09/18 03:25:09;;;;;;;1.20;1.10;;;15.00;99.90;;;;;;5033878;28;20190;-74
2021/09/18 03:27:34;;;;;;;4.37;1.30;;;15.00;99.90;;;;;;5032791;28;20182;-75
2021/09/18 03:30:00;;;;;;;2.43;1.77;;;15.00;99.90;;;;;;5031004;28;20999;-75
2021/09/18 03:32:26;;;;;;;2.47;1.50;;;14.90;99.90;;;;;;5018817;28;20219;-75
2021/09/18 03:34:51;;;;;;;3.60;1.77;;;14.90;99.90;;;;;;5031917;28;20195;-75
2021/09/18 03:37:17;;;;;;;1.60;1.37;;;14.80;99.90;;;;;;5025296;28;20186;-74
2021/09/18 03:39:42;;;;;;;2.50;2.30;;;14.80;99.90;;;;;;5016378;28;20246;-75
2021/09/18 03:42:08;;;;;;;1.80;1.70;;;14.80;99.90;;;;;;5027181;28;20192;-75
2021/09/18 03:44:34;;;;;;;1.63;1.53;;;14.80;99.90;;;;;;5017939;28;20168;-74
2021/09/18 03:46:59;;;;;;;2.70;2.43;;;14.80;99.90;;;;;;5015357;28;20251;-75
2021/09/18 03:49:25;;;;;;;1.67;1.57;;;14.70;99.90;;;;;;5013425;28;20195;-75
2021/09/18 03:51:50;;;;;;;1.00;0.80;;;14.70;99.90;;;;;;5014212;28;20188;-75
2021/09/18 03:54:16;;;;;;;1.60;1.50;;;14.70;99.90;;;;;;5031786;28;20188;-76
2021/09/18 03:56:41;;;;;;;2.03;1.87;;;14.70;99.90;;;;;;5028839;28;20167;-77
2021/09/18 03:59:07;;;;;;;4.23;4.00;;;14.70;99.90;;;;;;5028961;28;20291;-76
2021/09/18 04:01:33;;;;;;;8.63;1.60;;;14.60;99.90;;;;;;5010670;28;20199;-77
2021/09/18 04:03:59;;;;;;;1.63;1.53;;;14.60;99.90;;;;;;5011997;28;20176;-77
2021/09/18 04:06:26;;;;;;;1.63;1.53;;;14.60;99.90;;;;;;5012980;28;20531;-76
2021/09/18 04:08:51;;;;;;;2.43;2.20;;;14.50;99.90;;;;;;5014275;28;20415;-74
2021/09/18 04:11:17;;;;;;;1.77;1.67;;;14.50;99.90;;;;;;5011616;28;20450;-76
2021/09/18 04:13:42;;;;;;;6.63;3.07;;;14.50;99.90;;;;;;5013203;28;20172;-76
2021/09/18 04:16:08;;;;;;;2.60;2.10;;;14.50;99.90;;;;;;5021588;28;20619;-76
2021/09/18 04:18:33;;;;;;;1.37;0.97;;;14.50;99.90;;;;;;5035045;28;20168;-76
2021/09/18 04:20:59;;;;;;;1.20;1.10;;;14.40;99.90;;;;;;5015568;28;20466;-75
2021/09/18 04:23:24;;;;;;;1.03;0.90;;;14.50;99.90;;;;;;5015659;28;20164;-74
2021/09/18 04:25:50;;;;;;;2.33;1.20;;;14.40;99.90;;;;;;5023501;28;20168;-75
2021/09/18 04:28:15;;;;;;;2.43;1.53;;;14.40;99.90;;;;;;5015361;28;20168;-75
2021/09/18 04:30:42;;;;;;;1.53;1.37;;;14.40;99.90;;;;;;5033396;28;20187;-75
2021/09/18 04:33:07;;;;;;;0.73;0.63;;;14.40;99.90;;;;;;5015220;28;20203;-76
2021/09/18 04:35:33;;;;;;;1.63;1.53;;;14.30;99.90;;;;;;5016192;28;20950;-76
2021/09/18 04:37:58;;;;;;;1.87;1.37;;;14.30;99.90;;;;;;5036548;28;20182;-74
2021/09/18 04:40:24;;;;;;;1.57;1.47;;;14.30;99.90;;;;;;5036524;28;20199;-75
2021/09/18 04:42:49;;;;;;;1.10;0.80;;;14.30;99.90;;;;;;5024253;28;20248;-75
2021/09/18 04:45:15;;;;;;;0.90;0.80;;;14.30;99.90;;;;;;5015054;28;20165;-76
2021/09/18 04:47:41;;;;;;;1.30;1.00;;;14.30;99.90;;;;;;5033644;28;20294;-75
2021/09/18 04:50:07;;;;;;;1.80;1.70;;;14.20;99.90;;;;;;5021254;28;20192;-76
2021/09/18 04:52:33;;;;;;;1.50;1.33;;;14.20;99.90;;;;;;5014770;28;20585;-76
2021/09/18 04:54:58;;;;;;;5.23;1.93;;;14.20;99.90;;;;;;5014448;28;20465;-75
2021/09/18 04:57:24;;;;;;;2.77;1.70;;;14.10;99.90;;;;;;5033342;28;20191;-75
2021/09/18 04:59:49;;;;;;;2.03;1.80;;;14.10;99.90;;;;;;5021822;28;20250;-76
2021/09/18 05:02:15;;;;;;;1.77;1.50;;;14.10;99.90;;;;;;5015974;28;20176;-76
2021/09/18 05:04:40;;;;;;;1.93;1.13;;;14.10;99.90;;;;;;5014699;28;20169;-75
2021/09/18 05:07:06;;;;;;;2.03;1.93;;;14.10;99.90;;;;;;5030382;28;20167;-76
2021/09/18 05:09:31;;;;;;;2.10;2.00;;;14.10;99.90;;;;;;5024681;28;20184;-76
2021/09/18 05:11:57;;;;;;;3.10;1.50;;;14.10;99.90;;;;;;5014820;28;20192;-74
2021/09/18 05:14:22;;;;;;;20.93;3.37;;;14.00;99.90;;;;;;5016526;28;20646;-74
2021/09/18 05:16:48;;;;;;;4.10;1.63;;;14.00;99.90;;;;;;5020490;28;20176;-74
2021/09/18 05:19:13;;;;;;;1.03;0.97;;;14.10;99.90;;;;;;5036920;28;20174;-75
2021/09/18 05:21:39;;;;;;;3.83;2.47;;;14.00;99.90;;;;;;5033329;28;20668;-75
2021/09/18 05:24:05;;;;;;;1.27;1.17;;;14.00;99.90;;;;;;5032920;28;20196;-75
2021/09/18 05:26:31;;;;;;;2.03;0.93;;;14.00;99.90;;;;;;5029482;28;20584;-75
2021/09/18 05:28:57;;;;;;;1.70;1.60;;;14.00;99.90;;;;;;5014293;28;20487;-76
2021/09/18 05:31:22;;;;;;;4.73;2.90;;;14.00;99.90;;;;;;5014070;28;20674;-77
2021/09/18 05:33:48;;;;;;;4.13;2.27;;;14.00;99.90;;;;;;5014019;28;20547;-76
2021/09/18 05:36:13;;;;;;;1.43;1.33;;;14.00;99.90;;;;;;5034287;28;20176;-77
2021/09/18 05:38:39;;;;;;;2.57;2.37;;;14.00;99.90;;;;;;5032435;28;20182;-76
2021/09/18 05:41:04;;;;;;;1.13;1.03;;;14.00;99.90;;;;;;5033692;28;20199;-75
2021/09/18 05:43:30;;;;;;;2.10;1.97;;;14.10;99.90;;;;;;5032116;28;20186;-77
2021/09/18 05:45:55;;;;;;;1.50;1.40;;;14.10;99.90;;;;;;5032140;28;20612;-77
2021/09/18 05:48:21;;;;;;;3.27;2.90;;;14.10;99.90;;;;;;5016771;28;20210;-77
2021/09/18 05:50:46;;;;;;;1.20;1.07;;;14.10;99.90;;;;;;5013721;28;20188;-77
2021/09/18 05:53:13;;;;;;;2.17;2.00;;;14.10;99.90;;;;;;5015896;28;20544;-76
2021/09/18 05:55:39;;;;;;;2.90;1.60;;;14.10;99.90;;;;;;5013260;28;20176;-77
2021/09/18 05:58:04;;;;;;;2.17;1.03;;;14.20;99.90;;;;;;5025743;28;20488;-76
2021/09/18 06:00:30;;;;;;;5.23;4.90;;;14.20;99.90;;;;;;5033055;28;20257;-76
2021/09/18 06:02:55;;;;;;;7.37;2.77;;;14.30;99.90;;;;;;5031692;28;20723;-76
2021/09/18 06:05:21;;;;;;;2.13;2.03;;;14.30;99.90;;;;;;5012353;28;20168;-76
2021/09/18 06:07:47;;;;;;;2.60;2.00;;;14.40;99.90;;;;;;5024414;28;20172;-76
2021/09/18 06:10:12;;;;;;;4.30;1.13;;;14.40;99.90;;;;;;5031645;28;20200;-77
2021/09/18 06:12:38;;;;;;;1.33;1.13;;;14.50;99.90;;;;;;5031388;28;20806;-77
2021/09/18 06:15:04;;;;;;;2.63;2.43;;;14.50;99.90;;;;;;5031502;28;20172;-77
2021/09/18 06:17:30;;;;;;;2.60;2.40;;;14.60;99.90;;;;;;5024067;28;20187;-77
2021/09/18 06:19:55;;;;;;;1.10;1.00;;;14.70;99.90;;;;;;5011792;28;20455;-77
2021/09/18 06:22:21;;;;;;;2.23;1.30;;;14.70;99.90;;;;;;5019841;28;20226;-76
2021/09/18 06:24:46;;;;;;;2.50;1.77;;;14.80;99.90;;;;;;5012792;28;20654;-76
2021/09/18 06:27:12;;;;;;;4.53;2.17;;;14.80;99.90;;;;;;5018771;28;20172;-76
2021/09/18 06:29:38;;;;;;;1.57;1.10;;;14.90;99.90;;;;;;5031069;28;20175;-76
2021/09/18 06:32:07;;;;;;;1.90;1.50;;;15.00;99.90;;;;;;5031591;28;20684;-76
2021/09/18 06:34:37;;;;;;;1.43;0.80;;;15.10;99.90;;;;;;5032427;28;20513;-76
2021/09/18 06:37:06;;;;;;;2.07;1.77;;;15.20;99.90;;;;;;5026785;28;20450;-76
2021/09/18 06:39:33;;;;;;;2.33;1.50;;;15.30;99.90;;;;;;5017809;28;20460;-76
2021/09/18 06:41:59;;;;;;;1.93;1.30;;;15.40;99.90;;;;;;5030893;28;20921;-76
2021/09/18 06:44:24;;;;;;;2.20;2.07;;;15.60;99.90;;;;;;5028235;28;20533;-76
2021/09/18 06:46:50;;;;;;;1.83;1.73;;;15.70;99.90;;;;;;5014832;28;20230;-76
2021/09/18 06:49:15;;;;;;;3.33;2.40;;;15.80;99.90;;;;;;5032451;28;20228;-76
2021/09/18 06:51:41;;;;;;;3.13;2.60;;;15.90;99.90;;;;;;5029380;28;20196;-76
2021/09/18 06:54:06;;;;;;;3.70;2.83;;;16.00;99.90;;;;;;5047731;28;20195;-76
2021/09/18 06:56:32;;;;;;;1.63;1.53;;;16.10;99.90;;;;;;5029870;28;20178;-76
2021/09/18 06:58:57;;;;;;;15.27;1.57;;;16.20;99.90;;;;;;5012390;28;20192;-76
2021/09/18 07:01:24;;;;;;;3.53;1.40;;;16.30;99.90;;;;;;5013603;28;20203;-75
2021/09/18 07:03:49;;;;;;;1.10;1.00;;;16.50;99.90;;;;;;5012486;28;20171;-75
2021/09/18 07:06:15;;;;;;;2.53;1.90;;;16.50;99.90;;;;;;5010971;28;20411;-75
2021/09/18 07:08:40;;;;;;;3.47;3.17;;;16.60;99.90;;;;;;5015068;28;20552;-76
2021/09/18 07:11:06;;;;;;;1.57;1.47;;;16.80;99.90;;;;;;5019239;28;20568;-75
2021/09/18 07:13:31;;;;;;;1.67;1.40;;;16.90;99.90;;;;;;5029767;28;20191;-75
2021/09/18 07:15:58;;;;;;;3.73;1.80;;;17.10;99.90;;;;;;5032713;28;20167;-75
2021/09/18 07:18:23;;;;;;;1.63;1.17;;;17.20;99.90;;;;;;5032507;28;20229;-75
2021/09/18 07:20:49;;;;;;;1.50;1.07;;;17.30;99.90;;;;;;5030519;28;20457;-76
2021/09/18 07:23:14;;;;;;;3.80;1.67;;;17.40;99.90;;;;;;5032076;28;20254;-77
2021/09/18 07:25:40;;;;;;;1.47;1.10;;;17.60;99.90;;;;;;5033253;28;20579;-78
2021/09/18 07:28:06;;;;;;;0.90;0.80;;;17.70;99.90;;;;;;5018060;28;20226;-78
2021/09/18 07:30:32;;;;;;;2.23;2.13;;;17.80;99.90;;;;;;5014216;28;20197;-77
2021/09/18 07:32:57;;;;;;;1.20;1.10;;;17.90;99.90;;;;;;5010870;28;20176;-77
2021/09/18 07:35:23;;;;;;;2.23;1.50;;;18.00;99.90;;;;;;5011998;28;20418;-77
2021/09/18 07:37:49;;;;;;;3.73;1.83;;;18.10;99.90;;;;;;5024021;28;20209;-77
2021/09/18 07:40:15;;;;;;;2.60;1.73;;;18.10;99.90;;;;;;5031130;28;20242;-77
2021/09/18 07:42:41;;;;;;;3.20;1.67;;;18.20;99.90;;;;;;5029122;28;20173;-76
2021/09/18 07:45:09;;;;;;;3.63;1.43;;;18.40;99.90;;;;;;5025872;28;20449;-78
2021/09/18 07:47:35;;;;;;;4.93;2.90;;;18.50;99.90;;;;;;5018212;28;20476;-78
2021/09/18 07:50:01;;;;;;;1.60;1.40;;;18.70;99.90;;;;;;5017408;28;20819;-76
2021/09/18 07:52:26;;;;;;;2.23;2.13;;;18.80;99.90;;;;;;5016256;28;20414;-77
2021/09/18 07:54:52;;;;;;;2.17;1.97;;;18.80;99.90;;;;;;5014808;28;20177;-77
2021/09/18 07:57:17;;;;;;;4.50;3.03;;;18.90;99.90;;;;;;5017205;28;20188;-76
2021/09/18 07:59:43;;;;;;;3.47;3.27;;;18.90;99.90;;;;;;5015759;28;20612;-75
2021/09/18 08:02:08;;;;;;;1.77;1.67;;;18.90;99.90;;;;;;5017727;28;20203;-76
2021/09/18 08:04:35;;;;;;;1.93;1.67;;;19.10;99.90;;;;;;5032431;28;20535;-76
2021/09/18 08:07:01;;;;;;;2.60;2.40;;;19.30;99.90;;;;;;5035421;28;20178;-76
2021/09/18 08:09:26;;;;;;;2.00;1.80;;;19.60;99.90;;;;;;5035436;28;20497;-77
2021/09/18 08:11:52;;;;;;;1.30;1.20;;;20.00;99.90;;;;;;5036629;28;20601;-77
2021/09/18 08:14:17;;;;;;;5.10;2.70;;;20.40;99.90;;;;;;5021653;28;20168;-76
2021/09/18 08:16:43;;;;;;;8.17;2.67;;;21.00;99.90;;;;;;5021238;28;20250;-77
2021/09/18 08:19:09;;;;;;;3.00;2.70;;;21.50;99.90;;;;;;5034260;28;20590;-78
2021/09/18 08:21:34;;;;;;;2.00;1.87;;;21.90;99.90;;;;;;5033568;28;20266;-77
2021/09/18 08:24:00;;;;;;;4.57;3.13;;;22.50;99.90;;;;;;5022473;28;20172;-77
2021/09/18 08:26:30;;;;;;;2.80;2.60;;;23.10;99.90;;;;;;5016643;28;20258;-77
2021/09/18 08:28:59;;;;;;;2.37;2.17;;;23.20;99.90;;;;;;5035840;28;20170;-78
2021/09/18 08:31:25;;;;;;;4.33;2.40;;;23.90;99.90;;;;;;5035763;28;20464;-78
2021/09/18 08:33:51;;;;;;;4.83;4.53;;;24.50;99.90;;;;;;5027776;28;20419;-78
2021/09/18 08:36:17;;;;;;;2.50;2.30;;;24.80;99.90;;;;;;5016553;28;20521;-77
2021/09/18 08:38:42;;;;;;;3.87;2.90;;;25.00;99.90;;;;;;5033205;28;20187;-78
2021/09/18 08:41:08;;;;;;;2.20;2.00;;;25.30;99.90;;;;;;5036264;28;20838;-78
2021/09/18 08:43:34;;;;;;;3.17;2.43;;;25.70;99.90;;;;;;5030205;28;20673;-78
2021/09/18 08:46:00;;;;;;;4.30;3.90;;;26.00;99.90;;;;;;5033346;28;20185;-78
2021/09/18 08:48:26;;;;;;;3.30;2.80;;;26.10;99.90;;;;;;5034787;28;20426;-78
2021/09/18 08:50:52;;;;;;;6.27;3.83;;;26.40;99.90;;;;;;5036438;28;20187;-78
2021/09/18 08:53:20;;;;;;;3.37;2.40;;;26.60;99.90;;;;;;5035007;28;20430;-78
2021/09/18 08:55:57;;;;;;;3.47;1.97;;;26.80;99.90;;;;;;5031899;28;20433;-78
2021/09/18 08:58:23;;;;;;;6.13;3.93;;;27.10;99.90;;;;;;5028557;28;20472;-78
2021/09/18 09:00:53;;;;;;;7.40;3.27;;;27.10;99.90;;;;;;5032252;28;20472;-77
2021/09/18 09:03:37;;;;;;;4.07;3.00;;;27.50;99.90;;;;;;5019569;28;20411;-77
2021/09/18 09:06:07;;;;;;;3.87;3.03;;;28.00;99.90;;;;;;5018335;28;20414;-77
2021/09/18 09:08:33;;;;;;;3.93;3.07;;;28.20;99.90;;;;;;5020254;28;20951;-77
2021/09/18 09:11:13;;;;;;;5.90;3.40;;;28.00;99.90;;;;;;5024120;28;20483;-77
2021/09/18 09:13:52;;;;;;;4.23;3.83;;;27.90;99.90;;;;;;5025116;28;20936;-77
2021/09/18 09:16:18;;;;;;;3.70;2.03;;;27.80;99.90;;;;;;5019769;28;20415;-77
2021/09/18 09:18:44;;;;;;;4.87;3.40;;;27.80;99.90;;;;;;5020526;28;20480;-77
2021/09/18 09:21:12;;;;;;;3.73;3.00;;;28.10;99.90;;;;;;5017009;28;20209;-77
2021/09/18 09:23:38;;;;;;;5.57;2.80;;;28.20;99.90;;;;;;5028235;28;20423;-77
2021/09/18 09:26:04;;;;;;;6.13;3.20;;;28.40;99.90;;;;;;5019566;28;20916;-77
2021/09/18 09:28:36;;;;;;;4.57;4.17;;;28.60;99.90;;;;;;5031196;28;20832;-77
2021/09/18 09:31:16;;;;;;;3.10;2.80;;;28.90;99.90;;;;;;5034584;28;20422;-77
2021/09/18 09:34:14;;;;;;;5.90;4.57;;;29.00;99.90;;;;;;5033580;28;20421;-77
2021/09/18 09:36:43;;;;;;;4.20;3.80;;;29.10;99.90;;;;;;5031788;28;20418;-77
2021/09/18 09:39:12;;;;;;;5.47;4.90;;;29.20;99.90;;;;;;5034488;28;20398;-77
2021/09/18 09:41:44;;;;;;;6.80;3.23;;;29.20;99.90;;;;;;5033953;28;20439;-77
2021/09/18 09:44:13;;;;;;;3.53;2.77;;;29.30;99.90;;;;;;5032710;28;21055;-77
2021/09/18 09:46:39;;;;;;;7.23;5.17;;;29.30;99.90;;;;;;5019878;28;20941;-77
2021/09/18 09:49:10;;;;;;;7.20;5.83;;;29.60;99.90;;;;;;5014129;28;20506;-77
2021/09/18 09:51:36;;;;;;;4.20;3.20;;;29.90;99.90;;;;;;5016063;28;20427;-77
2021/09/18 09:54:35;;;;;;;4.37;3.50;;;30.20;99.90;;;;;;5017778;28;20437;-77
2021/09/18 09:57:09;;;;;;;4.73;4.30;;;30.70;99.40;;;;;;5001111;28;20419;-77
2021/09/18 09:59:36;;;;;;;6.40;3.43;;;30.90;99.90;;;;;;5013836;28;20524;-77
2021/09/18 10:02:04;;;;;;;9.97;5.63;;;31.40;99.40;;;;;;5013585;28;20434;-77
2021/09/18 10:04:29;;;;;;;7.23;3.70;;;31.80;95.70;;;;;;5029818;28;20418;-77
2021/09/18 10:06:56;;;;;;;5.47;3.50;;;31.90;95.20;;;;;;5030147;28;20426;-77
2021/09/18 10:09:23;;;;;;;5.87;5.23;;;32.30;96.30;;;;;;5031797;28;20586;-77
2021/09/18 10:11:49;;;;;;;4.17;3.77;;;32.60;93.50;;;;;;5033027;28;20430;-77
2021/09/18 10:14:20;;;;;;;4.07;3.67;;;32.80;92.00;;;;;;5018197;28;20420;-77
2021/09/18 10:16:48;;;;;;;6.17;3.17;;;32.90;90.70;;;;;;5012927;28;20430;-77
2021/09/18 10:19:15;;;;;;;8.63;7.80;;;33.10;91.40;;;;;;5013098;28;20411;-77
2021/09/18 10:24:26;;;;;;;6.80;4.70;;;33.40;87.50;;;;;;5027400;28;20479;-77
2021/09/18 10:27:18;;;;;;;5.80;4.37;;;33.60;86.90;;;;;;5029495;28;20441;-77
2021/09/18 10:29:45;;;;;;;6.17;5.53;;;33.70;84.20;;;;;;5032447;28;20509;-77
2021/09/18 10:32:11;;;;;;;6.17;5.60;;;33.60;79.30;;;;;;5029090;28;20435;-77
2021/09/18 10:34:37;;;;;;;5.57;3.90;;;33.60;79.70;;;;;;5029423;28;20422;-77
2021/09/18 10:37:03;;;;;;;4.77;3.90;;;33.70;77.60;;;;;;5029869;28;20187;-77
2021/09/18 10:39:28;;;;;;;10.53;5.47;;;33.90;81.90;;;;;;5031544;28;20194;-78
2021/09/18 10:41:57;;;;;;;3.07;2.77;;;34.00;75.90;;;;;;5047608;28;20967;-77
2021/09/18 10:44:26;;;;;;;4.87;4.43;;;34.00;75.00;;;;;;5013372;28;20216;-77
2021/09/18 10:46:59;;;;;;;7.80;3.93;;;33.90;71.40;;;;;;5028849;28;20429;-77
2021/09/18 10:49:34;;;;;;;3.90;3.60;;;33.80;73.20;;;;;;5041524;28;20422;-77
2021/09/18 10:52:20;;;;;;;3.23;2.93;;;34.00;74.50;;;;;;5029048;28;20461;-77
2021/09/18 10:55:10;;;;;;;3.67;3.30;;;34.10;68.70;;;;;;5012352;28;20514;-77
2021/09/18 10:57:36;;;;;;;4.33;2.20;;;34.30;71.60;;;;;;5013623;28;20435;-78
2021/09/18 11:00:24;;;;;;;7.90;3.23;;;34.50;69.90;;;;;;5014859;28;20457;-77
2021/09/18 11:02:54;;;;;;;2.83;2.53;;;34.70;67.50;;;;;;5032335;28;20580;-78
2021/09/18 11:05:22;;;;;;;5.07;2.83;;;34.60;65.20;;;;;;5030905;28;20398;-77
2021/09/18 11:08:13;;;;;;;5.17;2.60;;;34.60;63.70;;;;;;5034715;28;20413;-77
2021/09/18 11:10:42;;;;;;;2.60;2.40;;;34.40;65.80;;;;;;5037126;28;20492;-77
2021/09/18 11:13:08;;;;;;;2.80;2.60;;;34.50;63.60;;;;;;5030286;28;20419;-78
2021/09/18 11:15:44;;;;;;;1.97;1.77;;;34.70;64.80;;;;;;5028698;28;20430;-77
2021/09/18 11:18:15;;;;;;;3.20;2.90;;;35.00;65.10;;;;;;5012655;28;20306;-78
2021/09/18 11:20:41;;;;;;;2.70;2.50;;;34.90;61.40;;;;;;5019739;28;20493;-77
2021/09/18 11:23:08;;;;;;;2.57;2.37;;;35.20;62.80;;;;;;5011425;28;20415;-78
2021/09/18 11:25:43;;;;;;;3.80;3.50;;;35.40;62.80;;;;;;5014174;28;20547;-77
2021/09/18 11:28:11;;;;;;;4.03;2.13;;;35.60;61.10;;;;;;5015899;28;20784;-77
2021/09/18 11:30:53;;;;;;;3.73;2.63;;;35.50;59.60;;;;;;5032076;28;20453;-77
2021/09/18 11:33:21;;;;;;;3.13;2.83;;;35.30;61.70;;;;;;5011795;28;20437;-77
2021/09/18 11:35:59;;;;;;;3.10;1.87;;;35.40;58.60;;;;;;5016203;28;20420;-78
2021/09/18 11:38:29;;;;;;;2.80;2.33;;;35.50;59.90;;;;;;5025328;28;20437;-77
2021/09/18 11:41:10;;;;;;;1.63;1.53;;;35.60;58.90;;;;;;5020100;28;20458;-77
2021/09/18 11:43:37;;;;;;;2.00;1.87;;;35.80;57.40;;;;;;5021305;28;20532;-78
2021/09/18 11:46:04;;;;;;;1.60;1.50;;;35.70;56.30;;;;;;5011481;28;20404;-78
2021/09/18 11:48:31;;;;;;;2.23;2.03;;;35.90;57.20;;;;;;5012792;28;20403;-78
2021/09/18 11:50:58;;;;;;;1.70;1.50;;;35.60;55.20;;;;;;5012878;28;20438;-77
2021/09/18 11:53:24;;;;;;;1.70;1.60;;;35.60;55.90;;;;;;5013987;28;20502;-77
2021/09/18 11:55:55;;;;;;;1.97;1.70;;;35.70;55.70;;;;;;5016555;28;20474;-78
2021/09/18 11:58:23;;;;;;;3.47;3.17;;;35.90;55.70;;;;;;5014604;28;20991;-77
2021/09/18 12:00:54;;;;;;;3.13;2.30;;;35.50;54.60;;;;;;5031547;28;20493;-78
2021/09/18 12:03:34;;;;;;;1.97;1.73;;;35.10;54.40;;;;;;5030834;28;20943;-78
2021/09/18 12:06:02;;;;;;;2.87;2.30;;;35.10;55.80;;;;;;5032620;28;20442;-78
2021/09/18 12:08:30;;;;;;;6.07;2.10;;;35.00;54.60;;;;;;5022578;28;20419;-78
2021/09/18 12:11:10;;;;;;;1.67;1.50;;;34.40;54.10;;;;;;5028263;28;20433;-78
2021/09/18 12:13:44;;;;;;;2.00;1.80;;;34.40;57.70;;;;;;5027665;28;20430;-78
2021/09/18 12:16:11;;;;;;;1.87;1.77;;;34.50;57.00;;;;;;5029936;28;20448;-78
2021/09/18 12:18:42;;;;;;;3.10;2.80;;;34.50;56.80;;;;;;5020211;28;20415;-78
2021/09/18 12:21:09;;;;;;;1.63;1.53;;;34.70;57.10;;;;;;5012957;28;20459;-77
2021/09/18 12:24:03;;;;;;;1.97;1.80;;;34.70;56.90;;;;;;5026036;28;20426;-77
2021/09/18 12:26:30;;;;;;;1.63;1.43;;;34.90;57.80;;;;;;5016442;28;20422;-79
2021/09/18 12:29:08;;;;;;;2.10;1.70;;;35.00;55.60;;;;;;5028451;28;20454;-77
2021/09/18 12:31:34;;;;;;;1.83;1.73;;;35.00;56.90;;;;;;5011781;28;20438;-77
2021/09/18 12:34:12;;;;;;;4.03;1.93;;;35.00;56.90;;;;;;5011829;28;20445;-78
2021/09/18 12:36:38;;;;;;;2.57;2.03;;;34.70;56.70;;;;;;5028457;28;20449;-78
2021/09/18 12:39:06;;;;;;;2.37;2.17;;;34.40;56.80;;;;;;5026874;28;20850;-78
2021/09/18 12:41:33;;;;;;;2.00;1.80;;;33.90;56.10;;;;;;5018206;28;20196;-77
2021/09/18 12:44:02;;;;;;;2.90;1.80;;;33.30;57.40;;;;;;5028167;28;20770;-77
2021/09/18 12:46:29;;;;;;;4.37;3.10;;;32.80;58.20;;;;;;5024809;28;20506;-77
2021/09/18 12:49:03;;;;;;;2.07;1.90;;;32.20;58.60;;;;;;5039145;28;20423;-77